sensor_id;sensor_type;location;lat;lon;timestamp;P1;durP1;ratioP1;P2;durP2;ratioP2
64403;SDS011;50726;54.912;-8.392;2023-01-28T00:00:45;83.38;;;74.80;;
64403;SDS011;50726;54.912;-8.392;2023-01-28T00:03:10;85.88;;;76.68;;
64403;SDS011;50726;54.912;-8.392;2023-01-28T00:05:36;86.60;;;77.50;;
64403;SDS011;50726;54.912;-8.392;2023-01-28T00:08:02;86.78;;;77.88;;
64403;SDS011;50726;54.912;-8.392;2023-01-28T00:10:27;87.53;;;77.63;;
64403;SDS011;50726;54.912;-8.392;2023-01-28T00:12:53;88.88;;;79.50;;
64403;SDS011;50726;54.912;-8.392;2023-01-28T00:15:18;88.03;;;78.32;;
64403;SDS011;50726;54.912;-8.392;2023-01-28T00:17:44;87.35;;;77.85;;
64403;SDS011;50726;54.912;-8.392;2023-01-28T00:20:10;87.18;;;75.70;;
64403;SDS011;50726;54.912;-8.392;2023-01-28T00:22:36;86.70;;;76.53;;
64403;SDS011;50726;54.912;-8.392;2023-01-28T00:25:02;84.05;;;74.95;;
64403;SDS011;50726;54.912;-8.392;2023-01-28T00:27:28;77.70;;;69.35;;
64403;SDS011;50726;54.912;-8.392;2023-01-28T00:29:55;74.80;;;66.60;;
64403;SDS011;50726;54.912;-8.392;2023-01-28T00:32:20;73.78;;;65.03;;
64403;SDS011;50726;54.912;-8.392;2023-01-28T00:34:46;74.40;;;64.28;;
64403;SDS011;50726;54.912;-8.392;2023-01-28T00:37:14;73.80;;;63.50;;
64403;SDS011;50726;54.912;-8.392;2023-01-28T00:39:39;69.53;;;62.03;;
64403;SDS011;50726;54.912;-8.392;2023-01-28T00:42:05;69.10;;;61.60;;
64403;SDS011;50726;54.912;-8.392;2023-01-28T00:44:31;75.70;;;60.85;;
64403;SDS011;50726;54.912;-8.392;2023-01-28T00:46:56;72.65;;;64.75;;
64403;SDS011;50726;54.912;-8.392;2023-01-28T00:49:22;75.15;;;66.95;;
64403;SDS011;50726;54.912;-8.392;2023-01-28T00:51:48;77.30;;;68.93;;
64403;SDS011;50726;54.912;-8.392;2023-01-28T00:54:14;80.20;;;71.80;;
64403;SDS011;50726;54.912;-8.392;2023-01-28T00:56:40;80.63;;;72.13;;
64403;SDS011;50726;54.912;-8.392;2023-01-28T00:59:06;77.50;;;69.10;;
64403;SDS011;50726;54.912;-8.392;2023-01-28T01:01:31;79.53;;;69.93;;
64403;SDS011;50726;54.912;-8.392;2023-01-28T01:03:57;79.75;;;71.15;;
64403;SDS011;50726;54.912;-8.392;2023-01-28T01:06:36;80.10;;;71.50;;
64403;SDS011;50726;54.912;-8.392;2023-01-28T01:09:04;83.18;;;69.20;;
64403;SDS011;50726;54.912;-8.392;2023-01-28T01:11:32;79.70;;;69.13;;
64403;SDS011;50726;54.912;-8.392;2023-01-28T01:13:59;82.10;;;73.25;;
64403;SDS011;50726;54.912;-8.392;2023-01-28T01:16:27;81.25;;;72.68;;
64403;SDS011;50726;54.912;-8.392;2023-01-28T01:18:57;82.70;;;74.10;;
64403;SDS011;50726;54.912;-8.392;2023-01-28T01:21:25;80.35;;;71.45;;
64403;SDS011;50726;54.912;-8.392;2023-01-28T01:23:52;80.22;;;69.22;;
64403;SDS011;50726;54.912;-8.392;2023-01-28T01:26:18;78.05;;;69.60;;
64403;SDS011;50726;54.912;-8.392;2023-01-28T01:28:44;78.28;;;69.03;;
64403;SDS011;50726;54.912;-8.392;2023-01-28T01:31:11;82.60;;;71.38;;
64403;SDS011;50726;54.912;-8.392;2023-01-28T01:33:40;88.57;;;68.28;;
64403;SDS011;50726;54.912;-8.392;2023-01-28T01:36:07;90.95;;;67.05;;
64403;SDS011;50726;54.912;-8.392;2023-01-28T01:38:33;79.05;;;65.18;;
64403;SDS011;50726;54.912;-8.392;2023-01-28T01:41:01;87.90;;;71.10;;
64403;SDS011;50726;54.912;-8.392;2023-01-28T01:46:16;84.82;;;68.53;;
64403;SDS011;50726;54.912;-8.392;2023-01-28T01:48:52;88.38;;;68.05;;
64403;SDS011;50726;54.912;-8.392;2023-01-28T01:51:23;89.53;;;68.75;;
64403;SDS011;50726;54.912;-8.392;2023-01-28T01:53:53;93.18;;;68.40;;
64403;SDS011;50726;54.912;-8.392;2023-01-28T01:56:22;86.88;;;67.68;;
64403;SDS011;50726;54.912;-8.392;2023-01-28T01:58:52;80.75;;;66.70;;
64403;SDS011;50726;54.912;-8.392;2023-01-28T02:01:21;97.32;;;66.18;;
64403;SDS011;50726;54.912;-8.392;2023-01-28T02:06:19;82.17;;;67.73;;
64403;SDS011;50726;54.912;-8.392;2023-01-28T02:08:46;81.25;;;66.57;;
64403;SDS011;50726;54.912;-8.392;2023-01-28T02:11:12;82.53;;;66.72;;
64403;SDS011;50726;54.912;-8.392;2023-01-28T02:13:43;82.10;;;66.03;;
64403;SDS011;50726;54.912;-8.392;2023-01-28T02:16:12;74.07;;;65.93;;
64403;SDS011;50726;54.912;-8.392;2023-01-28T02:18:39;73.43;;;65.25;;
64403;SDS011;50726;54.912;-8.392;2023-01-28T02:21:11;73.10;;;65.13;;
64403;SDS011;50726;54.912;-8.392;2023-01-28T02:24:09;79.15;;;70.55;;
64403;SDS011;50726;54.912;-8.392;2023-01-28T02:34:39;81.07;;;70.97;;
64403;SDS011;50726;54.912;-8.392;2023-01-28T02:37:26;78.70;;;70.10;;
64403;SDS011;50726;54.912;-8.392;2023-01-28T02:39:59;83.72;;;71.50;;
64403;SDS011;50726;54.912;-8.392;2023-01-28T02:42:30;80.93;;;72.13;;
64403;SDS011;50726;54.912;-8.392;2023-01-28T02:44:59;79.97;;;71.25;;
64403;SDS011;50726;54.912;-8.392;2023-01-28T02:47:25;84.10;;;69.40;;
64403;SDS011;50726;54.912;-8.392;2023-01-28T02:50:11;77.95;;;68.65;;
64403;SDS011;50726;54.912;-8.392;2023-01-28T03:03:49;81.40;;;71.00;;
64403;SDS011;50726;54.912;-8.392;2023-01-28T03:06:43;83.43;;;69.60;;
64403;SDS011;50726;54.912;-8.392;2023-01-28T03:09:13;81.43;;;72.82;;
64403;SDS011;50726;54.912;-8.392;2023-01-28T03:12:06;79.85;;;70.35;;
64403;SDS011;50726;54.912;-8.392;2023-01-28T03:15:38;79.60;;;70.97;;
64403;SDS011;50726;54.912;-8.392;2023-01-28T03:18:39;86.45;;;71.70;;
64403;SDS011;50726;54.912;-8.392;2023-01-28T03:21:34;90.22;;;68.90;;
64403;SDS011;50726;54.912;-8.392;2023-01-28T03:24:25;77.90;;;69.45;;
64403;SDS011;50726;54.912;-8.392;2023-01-28T03:27:33;84.65;;;71.68;;
64403;SDS011;50726;54.912;-8.392;2023-01-28T03:30:33;79.45;;;70.70;;
64403;SDS011;50726;54.912;-8.392;2023-01-28T03:33:25;85.45;;;71.35;;
64403;SDS011;50726;54.912;-8.392;2023-01-28T03:36:11;89.20;;;71.53;;
64403;SDS011;50726;54.912;-8.392;2023-01-28T03:38:56;101.43;;;73.07;;
64403;SDS011;50726;54.912;-8.392;2023-01-28T03:41:23;86.57;;;73.78;;
64403;SDS011;50726;54.912;-8.392;2023-01-28T03:43:50;85.32;;;73.45;;
64403;SDS011;50726;54.912;-8.392;2023-01-28T03:46:17;80.60;;;71.93;;
64403;SDS011;50726;54.912;-8.392;2023-01-28T03:48:43;91.68;;;70.45;;
64403;SDS011;50726;54.912;-8.392;2023-01-28T03:51:09;79.13;;;70.68;;
64403;SDS011;50726;54.912;-8.392;2023-01-28T03:53:36;84.55;;;73.55;;
64403;SDS011;50726;54.912;-8.392;2023-01-28T03:56:02;82.45;;;73.32;;
64403;SDS011;50726;54.912;-8.392;2023-01-28T03:58:28;88.18;;;72.85;;
64403;SDS011;50726;54.912;-8.392;2023-01-28T04:01:12;87.53;;;73.93;;
64403;SDS011;50726;54.912;-8.392;2023-01-28T04:03:38;88.28;;;74.68;;
64403;SDS011;50726;54.912;-8.392;2023-01-28T04:06:05;90.60;;;74.13;;
64403;SDS011;50726;54.912;-8.392;2023-01-28T04:08:32;101.45;;;75.55;;
64403;SDS011;50726;54.912;-8.392;2023-01-28T04:10:58;87.50;;;74.00;;
64403;SDS011;50726;54.912;-8.392;2023-01-28T04:13:42;90.40;;;76.80;;
64403;SDS011;50726;54.912;-8.392;2023-01-28T04:16:09;90.13;;;75.38;;
64403;SDS011;50726;54.912;-8.392;2023-01-28T04:18:35;86.97;;;77.75;;
64403;SDS011;50726;54.912;-8.392;2023-01-28T04:21:01;90.35;;;75.53;;
64403;SDS011;50726;54.912;-8.392;2023-01-28T04:23:26;84.90;;;76.03;;
64403;SDS011;50726;54.912;-8.392;2023-01-28T04:25:54;88.60;;;76.38;;
64403;SDS011;50726;54.912;-8.392;2023-01-28T04:28:20;92.45;;;80.95;;
64403;SDS011;50726;54.912;-8.392;2023-01-28T04:30:45;88.55;;;79.43;;
64403;SDS011;50726;54.912;-8.392;2023-01-28T04:33:11;93.88;;;81.10;;
64403;SDS011;50726;54.912;-8.392;2023-01-28T04:35:37;89.90;;;80.40;;
64403;SDS011;50726;54.912;-8.392;2023-01-28T04:38:03;92.10;;;81.63;;
64403;SDS011;50726;54.912;-8.392;2023-01-28T04:40:29;98.13;;;81.70;;
64403;SDS011;50726;54.912;-8.392;2023-01-28T04:42:55;92.30;;;82.22;;
64403;SDS011;50726;54.912;-8.392;2023-01-28T04:45:22;91.20;;;81.85;;
64403;SDS011;50726;54.912;-8.392;2023-01-28T04:47:48;92.03;;;82.75;;
64403;SDS011;50726;54.912;-8.392;2023-01-28T04:50:15;92.97;;;82.78;;
64403;SDS011;50726;54.912;-8.392;2023-01-28T04:52:42;93.90;;;83.32;;
64403;SDS011;50726;54.912;-8.392;2023-01-28T04:55:08;91.43;;;82.22;;
64403;SDS011;50726;54.912;-8.392;2023-01-28T04:57:34;95.82;;;84.30;;
64403;SDS011;50726;54.912;-8.392;2023-01-28T05:00:00;103.18;;;80.75;;
64403;SDS011;50726;54.912;-8.392;2023-01-28T05:02:26;88.53;;;79.43;;
64403;SDS011;50726;54.912;-8.392;2023-01-28T05:04:52;92.47;;;79.40;;
64403;SDS011;50726;54.912;-8.392;2023-01-28T05:07:18;95.68;;;79.13;;
64403;SDS011;50726;54.912;-8.392;2023-01-28T05:09:44;87.85;;;78.38;;
64403;SDS011;50726;54.912;-8.392;2023-01-28T05:12:10;88.80;;;79.40;;
64403;SDS011;50726;54.912;-8.392;2023-01-28T05:14:35;94.80;;;81.00;;
64403;SDS011;50726;54.912;-8.392;2023-01-28T05:17:01;90.93;;;81.47;;
64403;SDS011;50726;54.912;-8.392;2023-01-28T05:19:27;96.45;;;80.95;;
64403;SDS011;50726;54.912;-8.392;2023-01-28T05:21:53;93.20;;;81.97;;
64403;SDS011;50726;54.912;-8.392;2023-01-28T05:24:18;95.93;;;81.35;;
64403;SDS011;50726;54.912;-8.392;2023-01-28T05:26:45;93.70;;;83.82;;
64403;SDS011;50726;54.912;-8.392;2023-01-28T05:29:11;92.82;;;82.88;;
64403;SDS011;50726;54.912;-8.392;2023-01-28T05:31:37;93.68;;;83.30;;
64403;SDS011;50726;54.912;-8.392;2023-01-28T05:34:03;85.65;;;76.68;;
64403;SDS011;50726;54.912;-8.392;2023-01-28T05:36:28;91.38;;;79.40;;
64403;SDS011;50726;54.912;-8.392;2023-01-28T05:38:54;97.70;;;80.45;;
64403;SDS011;50726;54.912;-8.392;2023-01-28T05:41:20;95.38;;;81.20;;
64403;SDS011;50726;54.912;-8.392;2023-01-28T05:43:45;91.72;;;82.28;;
64403;SDS011;50726;54.912;-8.392;2023-01-28T05:46:11;95.63;;;85.43;;
64403;SDS011;50726;54.912;-8.392;2023-01-28T05:48:37;94.30;;;83.40;;
64403;SDS011;50726;54.912;-8.392;2023-01-28T05:51:03;94.32;;;84.43;;
64403;SDS011;50726;54.912;-8.392;2023-01-28T05:53:29;92.80;;;82.57;;
64403;SDS011;50726;54.912;-8.392;2023-01-28T05:55:55;91.32;;;81.50;;
64403;SDS011;50726;54.912;-8.392;2023-01-28T05:58:21;90.68;;;80.95;;
64403;SDS011;50726;54.912;-8.392;2023-01-28T06:00:47;95.18;;;84.68;;
64403;SDS011;50726;54.912;-8.392;2023-01-28T06:03:13;92.60;;;82.60;;
64403;SDS011;50726;54.912;-8.392;2023-01-28T06:05:39;95.90;;;79.70;;
64403;SDS011;50726;54.912;-8.392;2023-01-28T06:08:04;96.10;;;79.90;;
64403;SDS011;50726;54.912;-8.392;2023-01-28T06:10:31;89.78;;;78.45;;
64403;SDS011;50726;54.912;-8.392;2023-01-28T06:12:56;93.32;;;79.20;;
64403;SDS011;50726;54.912;-8.392;2023-01-28T06:15:22;89.13;;;79.63;;
64403;SDS011;50726;54.912;-8.392;2023-01-28T06:17:48;95.35;;;78.88;;
64403;SDS011;50726;54.912;-8.392;2023-01-28T06:20:14;104.53;;;78.70;;
64403;SDS011;50726;54.912;-8.392;2023-01-28T06:22:41;94.18;;;79.65;;
64403;SDS011;50726;54.912;-8.392;2023-01-28T06:25:07;89.93;;;80.40;;
64403;SDS011;50726;54.912;-8.392;2023-01-28T06:27:34;87.53;;;77.90;;
64403;SDS011;50726;54.912;-8.392;2023-01-28T06:30:00;99.13;;;79.72;;
64403;SDS011;50726;54.912;-8.392;2023-01-28T06:32:26;88.35;;;78.57;;
64403;SDS011;50726;54.912;-8.392;2023-01-28T06:34:52;94.05;;;80.75;;
64403;SDS011;50726;54.912;-8.392;2023-01-28T06:37:17;91.00;;;80.90;;
64403;SDS011;50726;54.912;-8.392;2023-01-28T06:39:44;91.00;;;80.20;;
64403;SDS011;50726;54.912;-8.392;2023-01-28T06:42:09;104.10;;;82.47;;
64403;SDS011;50726;54.912;-8.392;2023-01-28T06:44:35;93.95;;;81.25;;
64403;SDS011;50726;54.912;-8.392;2023-01-28T06:47:01;94.90;;;81.38;;
64403;SDS011;50726;54.912;-8.392;2023-01-28T06:49:27;103.20;;;81.25;;
64403;SDS011;50726;54.912;-8.392;2023-01-28T06:51:52;91.00;;;80.50;;
64403;SDS011;50726;54.912;-8.392;2023-01-28T06:54:18;94.30;;;80.72;;
64403;SDS011;50726;54.912;-8.392;2023-01-28T06:56:44;91.28;;;81.38;;
64403;SDS011;50726;54.912;-8.392;2023-01-28T06:59:09;92.63;;;81.18;;
64403;SDS011;50726;54.912;-8.392;2023-01-28T07:01:35;94.63;;;84.28;;
64403;SDS011;50726;54.912;-8.392;2023-01-28T07:04:01;91.53;;;81.60;;
64403;SDS011;50726;54.912;-8.392;2023-01-28T07:06:26;97.00;;;81.53;;
64403;SDS011;50726;54.912;-8.392;2023-01-28T07:08:52;92.47;;;82.57;;
64403;SDS011;50726;54.912;-8.392;2023-01-28T07:11:18;91.85;;;81.97;;
64403;SDS011;50726;54.912;-8.392;2023-01-28T07:13:44;94.63;;;83.38;;
64403;SDS011;50726;54.912;-8.392;2023-01-28T07:16:12;93.78;;;83.57;;
64403;SDS011;50726;54.912;-8.392;2023-01-28T07:18:38;98.03;;;84.20;;
64403;SDS011;50726;54.912;-8.392;2023-01-28T07:21:04;92.40;;;82.53;;
64403;SDS011;50726;54.912;-8.392;2023-01-28T07:23:31;94.60;;;80.47;;
64403;SDS011;50726;54.912;-8.392;2023-01-28T07:26:03;93.57;;;80.00;;
64403;SDS011;50726;54.912;-8.392;2023-01-28T07:28:30;89.03;;;79.70;;
64403;SDS011;50726;54.912;-8.392;2023-01-28T07:30:56;88.65;;;79.28;;
64403;SDS011;50726;54.912;-8.392;2023-01-28T07:33:22;90.85;;;81.32;;
64403;SDS011;50726;54.912;-8.392;2023-01-28T07:35:47;91.78;;;82.07;;
64403;SDS011;50726;54.912;-8.392;2023-01-28T07:38:13;94.85;;;84.90;;
64403;SDS011;50726;54.912;-8.392;2023-01-28T07:40:39;94.03;;;84.07;;
64403;SDS011;50726;54.912;-8.392;2023-01-28T07:45:35;92.00;;;82.70;;
64403;SDS011;50726;54.912;-8.392;2023-01-28T07:48:03;94.28;;;84.13;;
64403;SDS011;50726;54.912;-8.392;2023-01-28T07:50:31;90.20;;;80.95;;
64403;SDS011;50726;54.912;-8.392;2023-01-28T07:52:58;95.13;;;79.43;;
64403;SDS011;50726;54.912;-8.392;2023-01-28T07:55:27;94.82;;;81.97;;
64403;SDS011;50726;54.912;-8.392;2023-01-28T07:57:54;92.15;;;82.20;;
64403;SDS011;50726;54.912;-8.392;2023-01-28T08:00:21;98.00;;;86.68;;
64403;SDS011;50726;54.912;-8.392;2023-01-28T08:02:49;103.03;;;90.25;;
64403;SDS011;50726;54.912;-8.392;2023-01-28T08:05:18;107.40;;;93.25;;
64403;SDS011;50726;54.912;-8.392;2023-01-28T08:07:45;111.28;;;93.40;;
64403;SDS011;50726;54.912;-8.392;2023-01-28T08:10:18;114.22;;;94.13;;
64403;SDS011;50726;54.912;-8.392;2023-01-28T08:12:51;105.53;;;94.10;;
64403;SDS011;50726;54.912;-8.392;2023-01-28T08:15:18;115.20;;;91.72;;
64403;SDS011;50726;54.912;-8.392;2023-01-28T08:17:43;108.63;;;92.10;;
64403;SDS011;50726;54.912;-8.392;2023-01-28T08:20:09;105.70;;;92.07;;
64403;SDS011;50726;54.912;-8.392;2023-01-28T08:22:36;101.38;;;90.28;;
64403;SDS011;50726;54.912;-8.392;2023-01-28T08:25:02;102.38;;;91.38;;
64403;SDS011;50726;54.912;-8.392;2023-01-28T08:27:28;102.85;;;91.75;;
64403;SDS011;50726;54.912;-8.392;2023-01-28T08:29:53;99.05;;;88.45;;
64403;SDS011;50726;54.912;-8.392;2023-01-28T08:32:19;104.38;;;92.93;;
64403;SDS011;50726;54.912;-8.392;2023-01-28T08:34:45;109.32;;;93.40;;
64403;SDS011;50726;54.912;-8.392;2023-01-28T08:37:10;106.18;;;93.80;;
64403;SDS011;50726;54.912;-8.392;2023-01-28T08:39:36;103.80;;;92.55;;
64403;SDS011;50726;54.912;-8.392;2023-01-28T08:42:02;105.82;;;94.95;;
64403;SDS011;50726;54.912;-8.392;2023-01-28T08:44:30;103.43;;;92.35;;
64403;SDS011;50726;54.912;-8.392;2023-01-28T08:46:56;106.72;;;95.20;;
64403;SDS011;50726;54.912;-8.392;2023-01-28T08:49:21;106.05;;;94.63;;
64403;SDS011;50726;54.912;-8.392;2023-01-28T08:51:47;107.40;;;96.80;;
64403;SDS011;50726;54.912;-8.392;2023-01-28T08:54:13;106.93;;;95.30;;
64403;SDS011;50726;54.912;-8.392;2023-01-28T08:56:39;110.32;;;98.82;;
64403;SDS011;50726;54.912;-8.392;2023-01-28T08:59:09;106.97;;;95.78;;
64403;SDS011;50726;54.912;-8.392;2023-01-28T09:01:36;109.03;;;94.03;;
64403;SDS011;50726;54.912;-8.392;2023-01-28T09:04:02;110.15;;;91.15;;
64403;SDS011;50726;54.912;-8.392;2023-01-28T09:06:28;104.25;;;93.25;;
64403;SDS011;50726;54.912;-8.392;2023-01-28T09:08:57;108.10;;;94.88;;
64403;SDS011;50726;54.912;-8.392;2023-01-28T09:13:49;107.60;;;96.20;;
64403;SDS011;50726;54.912;-8.392;2023-01-28T09:16:15;106.85;;;92.30;;
64403;SDS011;50726;54.912;-8.392;2023-01-28T09:18:41;102.50;;;90.80;;
64403;SDS011;50726;54.912;-8.392;2023-01-28T09:21:07;104.47;;;93.47;;
64403;SDS011;50726;54.912;-8.392;2023-01-28T09:23:34;110.15;;;94.72;;
64403;SDS011;50726;54.912;-8.392;2023-01-28T09:26:01;106.72;;;93.55;;
64403;SDS011;50726;54.912;-8.392;2023-01-28T09:28:28;101.90;;;90.85;;
64403;SDS011;50726;54.912;-8.392;2023-01-28T09:31:03;95.53;;;78.43;;
64403;SDS011;50726;54.912;-8.392;2023-01-28T09:33:31;97.45;;;81.30;;
64403;SDS011;50726;54.912;-8.392;2023-01-28T09:36:00;93.72;;;83.82;;
64403;SDS011;50726;54.912;-8.392;2023-01-28T09:38:28;94.63;;;83.70;;
64403;SDS011;50726;54.912;-8.392;2023-01-28T09:40:54;102.97;;;81.82;;
64403;SDS011;50726;54.912;-8.392;2023-01-28T09:43:47;98.80;;;82.68;;
64403;SDS011;50726;54.912;-8.392;2023-01-28T09:46:25;99.20;;;81.85;;
64403;SDS011;50726;54.912;-8.392;2023-01-28T09:48:57;94.68;;;81.78;;
64403;SDS011;50726;54.912;-8.392;2023-01-28T09:51:38;94.47;;;80.82;;
64403;SDS011;50726;54.912;-8.392;2023-01-28T09:54:11;96.35;;;80.72;;
64403;SDS011;50726;54.912;-8.392;2023-01-28T09:56:44;88.95;;;79.28;;
64403;SDS011;50726;54.912;-8.392;2023-01-28T09:59:18;90.60;;;80.85;;
64403;SDS011;50726;54.912;-8.392;2023-01-28T10:01:52;89.53;;;79.75;;
64403;SDS011;50726;54.912;-8.392;2023-01-28T10:09:55;98.13;;;77.80;;
64403;SDS011;50726;54.912;-8.392;2023-01-28T10:18:07;86.88;;;77.00;;
64403;SDS011;50726;54.912;-8.392;2023-01-28T10:20:39;92.57;;;77.70;;
64403;SDS011;50726;54.912;-8.392;2023-01-28T10:23:10;92.22;;;77.85;;
64403;SDS011;50726;54.912;-8.392;2023-01-28T10:25:46;84.15;;;74.90;;
64403;SDS011;50726;54.912;-8.392;2023-01-28T10:28:23;105.13;;;79.55;;
64403;SDS011;50726;54.912;-8.392;2023-01-28T10:30:53;107.05;;;81.82;;
64403;SDS011;50726;54.912;-8.392;2023-01-28T10:33:35;97.93;;;81.20;;
64403;SDS011;50726;54.912;-8.392;2023-01-28T10:36:02;105.88;;;78.75;;
64403;SDS011;50726;54.912;-8.392;2023-01-28T10:38:28;95.72;;;78.00;;
64403;SDS011;50726;54.912;-8.392;2023-01-28T10:40:57;97.45;;;78.25;;
64403;SDS011;50726;54.912;-8.392;2023-01-28T10:43:28;91.82;;;74.82;;
64403;SDS011;50726;54.912;-8.392;2023-01-28T10:48:31;88.50;;;75.45;;
64403;SDS011;50726;54.912;-8.392;2023-01-28T10:51:00;88.70;;;75.32;;
64403;SDS011;50726;54.912;-8.392;2023-01-28T10:53:42;93.00;;;74.72;;
64403;SDS011;50726;54.912;-8.392;2023-01-28T10:59:17;83.88;;;74.22;;
64403;SDS011;50726;54.912;-8.392;2023-01-28T11:01:49;78.63;;;70.13;;
64403;SDS011;50726;54.912;-8.392;2023-01-28T11:04:21;81.70;;;72.72;;
64403;SDS011;50726;54.912;-8.392;2023-01-28T11:06:55;84.63;;;75.45;;
64403;SDS011;50726;54.912;-8.392;2023-01-28T11:09:32;86.85;;;73.88;;
64403;SDS011;50726;54.912;-8.392;2023-01-28T11:12:16;96.72;;;75.47;;
64403;SDS011;50726;54.912;-8.392;2023-01-28T11:14:49;84.03;;;75.22;;
64403;SDS011;50726;54.912;-8.392;2023-01-28T11:17:16;96.03;;;77.88;;
64403;SDS011;50726;54.912;-8.392;2023-01-28T11:19:44;99.28;;;81.28;;
64403;SDS011;50726;54.912;-8.392;2023-01-28T11:25:02;95.40;;;83.70;;
64403;SDS011;50726;54.912;-8.392;2023-01-28T11:27:40;91.25;;;80.57;;
64403;SDS011;50726;54.912;-8.392;2023-01-28T11:30:31;109.03;;;82.82;;
64403;SDS011;50726;54.912;-8.392;2023-01-28T11:35:53;109.95;;;82.05;;
64403;SDS011;50726;54.912;-8.392;2023-01-28T11:38:21;90.40;;;76.38;;
64403;SDS011;50726;54.912;-8.392;2023-01-28T11:40:53;87.28;;;77.88;;
64403;SDS011;50726;54.912;-8.392;2023-01-28T11:43:22;89.35;;;79.60;;
64403;SDS011;50726;54.912;-8.392;2023-01-28T11:48:58;89.65;;;80.90;;
64403;SDS011;50726;54.912;-8.392;2023-01-28T11:57:23;98.40;;;88.70;;
64403;SDS011;50726;54.912;-8.392;2023-01-28T12:02:42;94.15;;;82.93;;
64403;SDS011;50726;54.912;-8.392;2023-01-28T12:14:36;89.60;;;80.40;;
64403;SDS011;50726;54.912;-8.392;2023-01-28T12:20:17;96.43;;;86.32;;
64403;SDS011;50726;54.912;-8.392;2023-01-28T12:22:52;96.20;;;86.10;;
64403;SDS011;50726;54.912;-8.392;2023-01-28T12:41:17;107.25;;;96.70;;
64403;SDS011;50726;54.912;-8.392;2023-01-28T12:56:52;106.75;;;95.75;;
64403;SDS011;50726;54.912;-8.392;2023-01-28T13:04:44;105.78;;;95.03;;
64403;SDS011;50726;54.912;-8.392;2023-01-28T13:07:23;111.22;;;99.93;;
64403;SDS011;50726;54.912;-8.392;2023-01-28T13:09:59;110.22;;;99.38;;
64403;SDS011;50726;54.912;-8.392;2023-01-28T13:12:35;108.32;;;96.53;;
64403;SDS011;50726;54.912;-8.392;2023-01-28T13:15:04;111.70;;;99.70;;
64403;SDS011;50726;54.912;-8.392;2023-01-28T13:17:36;113.75;;;102.20;;
64403;SDS011;50726;54.912;-8.392;2023-01-28T13:20:01;120.25;;;107.78;;
64403;SDS011;50726;54.912;-8.392;2023-01-28T13:22:38;117.18;;;105.20;;
64403;SDS011;50726;54.912;-8.392;2023-01-28T13:27:57;109.82;;;98.10;;
64403;SDS011;50726;54.912;-8.392;2023-01-28T13:30:28;110.60;;;99.20;;
64403;SDS011;50726;54.912;-8.392;2023-01-28T13:35:27;108.43;;;97.88;;
64403;SDS011;50726;54.912;-8.392;2023-01-28T13:38:06;111.28;;;100.13;;
64403;SDS011;50726;54.912;-8.392;2023-01-28T13:40:35;109.50;;;98.65;;
64403;SDS011;50726;54.912;-8.392;2023-01-28T13:43:04;108.80;;;97.82;;
64403;SDS011;50726;54.912;-8.392;2023-01-28T13:45:55;103.65;;;92.18;;
64403;SDS011;50726;54.912;-8.392;2023-01-28T13:48:45;105.45;;;94.95;;
64403;SDS011;50726;54.912;-8.392;2023-01-28T13:51:19;105.50;;;94.07;;
64403;SDS011;50726;54.912;-8.392;2023-01-28T13:54:19;108.95;;;96.57;;
64403;SDS011;50726;54.912;-8.392;2023-01-28T14:19:02;104.70;;;94.13;;
64403;SDS011;50726;54.912;-8.392;2023-01-28T14:21:31;105.25;;;94.85;;
64403;SDS011;50726;54.912;-8.392;2023-01-28T14:23:59;106.88;;;96.22;;
64403;SDS011;50726;54.912;-8.392;2023-01-28T14:27:08;107.45;;;96.65;;
64403;SDS011;50726;54.912;-8.392;2023-01-28T14:32:16;108.25;;;97.82;;
64403;SDS011;50726;54.912;-8.392;2023-01-28T14:34:44;107.80;;;97.00;;
64403;SDS011;50726;54.912;-8.392;2023-01-28T14:37:15;107.85;;;97.25;;
64403;SDS011;50726;54.912;-8.392;2023-01-28T14:39:44;108.95;;;98.00;;
64403;SDS011;50726;54.912;-8.392;2023-01-28T14:42:38;108.72;;;98.32;;
64403;SDS011;50726;54.912;-8.392;2023-01-28T15:00:13;117.72;;;107.03;;
64403;SDS011;50726;54.912;-8.392;2023-01-28T15:04:47;118.63;;;107.80;;
64403;SDS011;50726;54.912;-8.392;2023-01-28T15:07:15;118.07;;;107.18;;
64403;SDS011;50726;54.912;-8.392;2023-01-28T15:09:44;119.55;;;107.68;;
64403;SDS011;50726;54.912;-8.392;2023-01-28T15:12:10;120.53;;;109.45;;
64403;SDS011;50726;54.912;-8.392;2023-01-28T15:14:38;120.28;;;108.43;;
64403;SDS011;50726;54.912;-8.392;2023-01-28T15:17:05;117.95;;;106.55;;
64403;SDS011;50726;54.912;-8.392;2023-01-28T15:19:31;122.93;;;110.68;;
64403;SDS011;50726;54.912;-8.392;2023-01-28T15:22:01;125.70;;;113.90;;
64403;SDS011;50726;54.912;-8.392;2023-01-28T15:24:31;124.93;;;113.00;;
64403;SDS011;50726;54.912;-8.392;2023-01-28T15:26:59;120.18;;;108.22;;
64403;SDS011;50726;54.912;-8.392;2023-01-28T15:29:30;119.35;;;107.07;;
64403;SDS011;50726;54.912;-8.392;2023-01-28T15:32:01;123.00;;;111.10;;
64403;SDS011;50726;54.912;-8.392;2023-01-28T15:34:28;123.97;;;111.47;;
64403;SDS011;50726;54.912;-8.392;2023-01-28T15:36:58;121.40;;;109.85;;
64403;SDS011;50726;54.912;-8.392;2023-01-28T15:39:26;119.60;;;107.40;;
64403;SDS011;50726;54.912;-8.392;2023-01-28T15:41:57;122.10;;;110.28;;
64403;SDS011;50726;54.912;-8.392;2023-01-28T15:46:57;118.97;;;107.60;;
64403;SDS011;50726;54.912;-8.392;2023-01-28T15:49:32;120.10;;;108.63;;
64403;SDS011;50726;54.912;-8.392;2023-01-28T15:52:01;120.93;;;109.45;;
64403;SDS011;50726;54.912;-8.392;2023-01-28T15:54:27;120.55;;;109.07;;
64403;SDS011;50726;54.912;-8.392;2023-01-28T15:56:54;123.70;;;111.80;;
64403;SDS011;50726;54.912;-8.392;2023-01-28T15:59:24;118.35;;;106.00;;
64403;SDS011;50726;54.912;-8.392;2023-01-28T16:04:54;113.82;;;102.18;;
64403;SDS011;50726;54.912;-8.392;2023-01-28T16:07:41;114.38;;;103.13;;
64403;SDS011;50726;54.912;-8.392;2023-01-28T16:10:15;116.95;;;105.00;;
64403;SDS011;50726;54.912;-8.392;2023-01-28T16:12:48;121.55;;;109.25;;
64403;SDS011;50726;54.912;-8.392;2023-01-28T16:15:18;111.40;;;99.95;;
64403;SDS011;50726;54.912;-8.392;2023-01-28T16:17:46;112.38;;;100.82;;
64403;SDS011;50726;54.912;-8.392;2023-01-28T16:20:21;116.43;;;104.35;;
64403;SDS011;50726;54.912;-8.392;2023-01-28T16:22:49;117.97;;;105.65;;
64403;SDS011;50726;54.912;-8.392;2023-01-28T16:27:56;115.13;;;101.82;;
64403;SDS011;50726;54.912;-8.392;2023-01-28T16:30:23;111.78;;;100.03;;
64403;SDS011;50726;54.912;-8.392;2023-01-28T16:32:50;109.35;;;97.07;;
64403;SDS011;50726;54.912;-8.392;2023-01-28T16:35:21;108.38;;;97.15;;
64403;SDS011;50726;54.912;-8.392;2023-01-28T16:37:53;109.18;;;98.28;;
64403;SDS011;50726;54.912;-8.392;2023-01-28T16:40:20;110.72;;;99.00;;
64403;SDS011;50726;54.912;-8.392;2023-01-28T16:42:47;113.35;;;102.25;;
64403;SDS011;50726;54.912;-8.392;2023-01-28T16:45:18;110.25;;;99.25;;
64403;SDS011;50726;54.912;-8.392;2023-01-28T16:47:46;113.35;;;102.25;;
64403;SDS011;50726;54.912;-8.392;2023-01-28T16:50:13;117.47;;;105.30;;
64403;SDS011;50726;54.912;-8.392;2023-01-28T16:52:43;122.30;;;109.72;;
64403;SDS011;50726;54.912;-8.392;2023-01-28T16:55:17;119.15;;;106.68;;
64403;SDS011;50726;54.912;-8.392;2023-01-28T16:57:45;116.93;;;104.93;;
64403;SDS011;50726;54.912;-8.392;2023-01-28T17:00:17;112.65;;;100.75;;
64403;SDS011;50726;54.912;-8.392;2023-01-28T17:02:46;112.38;;;100.47;;
64403;SDS011;50726;54.912;-8.392;2023-01-28T17:05:13;107.85;;;95.97;;